Time;durP1;ratioP1;P1;durP2;ratioP2;P2;SDS_P1;SDS_P2;PMS_P1;PMS_P2;Temp;Humidity;BMP_temperature;BMP_pressure;BME280_temperature;BME280_humidity;BME280_pressure;Samples;Min_cycle;Max_cycle;Signal;HPM_P1;HPM_P2
2021/10/11 00:01:11;;;;;;;8.38;2.33;;;11.10;99.90;;;;;;5043777;28;20394;-61
2021/10/11 00:03:37;;;;;;;11.77;2.50;;;11.00;99.90;;;;;;5033390;28;20372;-62
2021/10/11 00:06:02;;;;;;;8.80;3.53;;;11.00;99.90;;;;;;5037005;28;20428;-61
2021/10/11 00:08:28;;;;;;;11.75;3.10;;;11.00;99.90;;;;;;5043171;28;20036;-61
2021/10/11 00:10:53;;;;;;;8.60;2.83;;;10.90;99.90;;;;;;5024586;28;20037;-61
2021/10/11 00:13:22;;;;;;;9.73;3.65;;;10.90;99.90;;;;;;5037932;28;20095;-61
2021/10/11 00:15:48;;;;;;;16.10;3.50;;;10.90;99.90;;;;;;5019282;28;20038;-61
2021/10/11 00:18:15;;;;;;;9.85;2.95;;;10.80;99.90;;;;;;5036621;28;20091;-61
2021/10/11 00:20:40;;;;;;;9.45;3.05;;;10.80;99.90;;;;;;5045650;28;20043;-61
2021/10/11 00:23:06;;;;;;;9.63;2.80;;;10.80;99.90;;;;;;5048860;28;20041;-61
2021/10/11 00:25:32;;;;;;;11.20;3.08;;;10.70;99.90;;;;;;5013857;28;20103;-61
2021/10/11 00:27:57;;;;;;;13.15;3.33;;;10.70;99.90;;;;;;5027753;28;20124;-61
2021/10/11 00:30:23;;;;;;;11.43;3.03;;;10.70;99.90;;;;;;5027673;28;20030;-61
2021/10/11 00:32:49;;;;;;;8.95;2.88;;;10.60;99.90;;;;;;5040158;28;20036;-61
2021/10/11 00:35:15;;;;;;;12.70;3.15;;;10.60;99.90;;;;;;5052405;28;20082;-61
2021/10/11 00:37:40;;;;;;;8.90;3.10;;;10.60;99.90;;;;;;5045555;28;20053;-61
2021/10/11 00:40:07;;;;;;;12.30;2.88;;;10.60;99.90;;;;;;5035287;28;20631;-61
2021/10/11 00:42:34;;;;;;;9.82;2.50;;;10.50;99.90;;;;;;5035443;28;20038;-61
2021/10/11 00:44:59;;;;;;;19.58;3.90;;;10.60;99.90;;;;;;5019223;28;20575;-61
2021/10/11 00:47:25;;;;;;;13.35;3.05;;;10.60;99.90;;;;;;5024478;28;20057;-61
2021/10/11 00:49:50;;;;;;;9.77;3.03;;;10.70;99.90;;;;;;5027296;28;20045;-61
2021/10/11 00:52:16;;;;;;;7.35;2.53;;;10.70;99.90;;;;;;5030201;28;20037;-61
2021/10/11 00:54:42;;;;;;;11.32;3.00;;;10.70;99.90;;;;;;5032164;28;20065;-61
2021/10/11 00:57:07;;;;;;;10.63;2.65;;;10.80;99.90;;;;;;5033595;28;20390;-61
2021/10/11 00:59:33;;;;;;;10.43;2.85;;;10.80;99.90;;;;;;5033285;28;20045;-61
2021/10/11 01:01:59;;;;;;;8.13;3.00;;;10.80;99.90;;;;;;5035338;28;20041;-61
2021/10/11 01:04:24;;;;;;;11.10;3.00;;;10.70;99.90;;;;;;5034671;28;20034;-61
2021/10/11 01:06:50;;;;;;;8.18;2.85;;;10.70;99.90;;;;;;5032024;28;20040;-61
2021/10/11 01:09:15;;;;;;;14.50;3.33;;;10.70;99.90;;;;;;5034367;28;20036;-61
2021/10/11 01:11:42;;;;;;;12.00;3.20;;;10.70;99.90;;;;;;5033408;28;20048;-61
2021/10/11 01:14:08;;;;;;;8.68;3.10;;;10.60;99.90;;;;;;5033538;28;20060;-61
2021/10/11 01:16:34;;;;;;;8.32;2.10;;;10.60;99.90;;;;;;5028563;28;20037;-61
2021/10/11 01:19:00;;;;;;;11.30;2.58;;;10.60;99.90;;;;;;5037895;28;20033;-61
2021/10/11 01:21:26;;;;;;;11.13;3.30;;;10.60;99.90;;;;;;5049090;28;20041;-61
2021/10/11 01:23:52;;;;;;;12.20;3.33;;;10.60;99.90;;;;;;5034992;28;20620;-61
2021/10/11 01:26:19;;;;;;;11.90;3.05;;;10.50;99.90;;;;;;5050085;28;20447;-61
2021/10/11 01:28:44;;;;;;;8.77;2.13;;;10.50;99.90;;;;;;5049789;28;20056;-61
2021/10/11 01:31:10;;;;;;;7.97;2.72;;;10.50;99.90;;;;;;5032733;28;20041;-61
2021/10/11 01:33:36;;;;;;;8.52;2.35;;;10.40;99.90;;;;;;5033298;28;20037;-61
2021/10/11 01:36:02;;;;;;;13.80;2.85;;;10.30;99.90;;;;;;5031412;28;20116;-61
2021/10/11 01:38:27;;;;;;;11.75;2.75;;;10.40;99.90;;;;;;5032395;28;20092;-61
2021/10/11 01:40:53;;;;;;;6.15;2.15;;;10.30;99.90;;;;;;5027190;28;20064;-61
2021/10/11 01:43:18;;;;;;;14.73;2.50;;;10.20;99.90;;;;;;5024033;28;20124;-61
2021/10/11 01:45:49;;;;;;;11.27;2.58;;;10.20;99.90;;;;;;5023534;28;20040;-61
2021/10/11 01:48:14;;;;;;;10.73;2.55;;;10.20;99.90;;;;;;5033066;28;20052;-61
2021/10/11 01:50:40;;;;;;;9.95;2.40;;;10.10;99.90;;;;;;5023754;28;20037;-61
2021/10/11 01:53:06;;;;;;;10.18;2.42;;;10.10;99.90;;;;;;5046089;28;20689;-61
2021/10/11 01:55:31;;;;;;;10.02;2.88;;;10.10;99.90;;;;;;5027623;28;20044;-61
2021/10/11 01:57:57;;;;;;;9.05;2.28;;;10.10;99.90;;;;;;5029534;28;20049;-61
2021/10/11 02:00:23;;;;;;;8.55;2.58;;;10.10;99.90;;;;;;5029572;28;20037;-61
2021/10/11 02:02:48;;;;;;;9.98;2.70;;;10.00;99.90;;;;;;5027855;28;20387;-61
2021/10/11 02:05:14;;;;;;;12.27;2.60;;;10.00;99.90;;;;;;5030408;28;20048;-61
2021/10/11 02:07:40;;;;;;;6.68;2.33;;;10.00;99.90;;;;;;5029633;28;20053;-61
2021/10/11 02:10:06;;;;;;;8.98;2.28;;;9.90;99.90;;;;;;5026830;28;20497;-61
2021/10/11 02:12:32;;;;;;;8.40;2.45;;;9.90;99.90;;;;;;5040531;28;20083;-61
2021/10/11 02:14:57;;;;;;;10.43;2.22;;;9.90;99.90;;;;;;5027566;28;20081;-61
2021/10/11 02:17:23;;;;;;;15.18;2.72;;;9.80;99.90;;;;;;5034048;28;20030;-61
2021/10/11 02:19:49;;;;;;;14.20;3.30;;;9.70;99.90;;;;;;5023483;28;20050;-61
2021/10/11 02:22:15;;;;;;;12.07;2.65;;;9.70;99.90;;;;;;5041945;28;20145;-61
2021/10/11 02:24:40;;;;;;;7.72;1.95;;;9.60;99.90;;;;;;5047391;28;20036;-61
2021/10/11 02:27:06;;;;;;;5.82;2.33;;;9.60;99.90;;;;;;5032094;28;20053;-61
2021/10/11 02:29:32;;;;;;;9.18;2.95;;;9.60;99.90;;;;;;5030864;28;20053;-61
2021/10/11 02:31:57;;;;;;;5.57;2.40;;;9.50;99.90;;;;;;5028278;28;20088;-61
2021/10/11 02:34:23;;;;;;;7.22;2.40;;;9.50;99.90;;;;;;5027867;28;20060;-61
2021/10/11 02:36:49;;;;;;;10.07;2.80;;;9.40;99.90;;;;;;4983300;28;1019074;-61
2021/10/11 02:39:15;;;;;;;6.25;2.25;;;9.40;99.90;;;;;;5030722;28;20116;-61
2021/10/11 02:41:40;;;;;;;5.70;2.17;;;9.30;99.90;;;;;;5036472;28;20598;-61
2021/10/11 02:44:06;;;;;;;10.18;2.67;;;9.30;99.90;;;;;;5033194;28;20037;-61
2021/10/11 02:46:32;;;;;;;11.60;2.60;;;9.30;99.90;;;;;;5039704;28;20102;-61
2021/10/11 02:48:57;;;;;;;8.38;2.22;;;9.20;99.90;;;;;;5027833;28;20049;-61
2021/10/11 02:51:23;;;;;;;7.03;2.47;;;9.20;99.90;;;;;;5028092;28;20724;-61
2021/10/11 02:53:49;;;;;;;10.73;2.95;;;9.20;99.90;;;;;;5018816;28;20068;-61
2021/10/11 02:56:19;;;;;;;14.00;2.70;;;9.20;99.90;;;;;;5030116;28;20037;-61
2021/10/11 02:58:47;;;;;;;11.23;3.10;;;9.20;99.90;;;;;;5030545;28;20033;-61
2021/10/11 03:01:14;;;;;;;8.38;2.35;;;9.10;99.90;;;;;;5027591;28;20566;-61
2021/10/11 03:03:40;;;;;;;8.95;2.55;;;9.20;99.90;;;;;;5039893;28;20036;-62
2021/10/11 03:06:06;;;;;;;13.48;2.80;;;9.10;99.90;;;;;;5048702;28;20405;-61
2021/10/11 03:08:33;;;;;;;8.02;2.58;;;9.10;99.90;;;;;;5028997;28;20041;-61
2021/10/11 03:10:59;;;;;;;8.02;2.78;;;9.10;99.90;;;;;;5032059;28;20088;-61
2021/10/11 03:13:25;;;;;;;7.75;2.50;;;9.10;99.90;;;;;;5031550;28;20057;-62
2021/10/11 03:15:50;;;;;;;10.60;2.55;;;9.10;99.90;;;;;;5030859;28;20094;-61
2021/10/11 03:18:16;;;;;;;8.73;2.85;;;9.20;99.90;;;;;;5028175;28;20601;-61
2021/10/11 03:20:41;;;;;;;10.82;2.90;;;9.20;99.90;;;;;;5031351;28;20040;-61
2021/10/11 03:23:07;;;;;;;10.23;2.72;;;9.20;99.90;;;;;;5030677;28;20590;-61
2021/10/11 03:25:32;;;;;;;7.30;2.50;;;9.20;99.90;;;;;;5014035;28;20455;-61
2021/10/11 03:27:58;;;;;;;10.23;2.40;;;9.20;99.90;;;;;;5035936;28;20087;-61
2021/10/11 03:30:23;;;;;;;8.82;2.40;;;9.20;99.90;;;;;;5016809;28;20042;-61
2021/10/11 03:32:49;;;;;;;6.43;2.45;;;9.20;99.90;;;;;;5026906;28;20043;-61
2021/10/11 03:35:14;;;;;;;8.02;2.55;;;9.20;99.90;;;;;;5025519;28;20053;-62
2021/10/11 03:37:40;;;;;;;8.93;2.40;;;9.20;99.90;;;;;;5024411;28;20081;-61
2021/10/11 03:40:06;;;;;;;7.55;2.30;;;9.20;99.90;;;;;;5014502;28;20545;-61
2021/10/11 03:42:32;;;;;;;7.45;2.05;;;9.20;99.90;;;;;;5050130;28;20079;-62
2021/10/11 03:44:57;;;;;;;8.55;2.58;;;9.20;99.90;;;;;;5040264;28;20060;-62
2021/10/11 03:47:23;;;;;;;10.15;2.58;;;9.20;99.90;;;;;;5032753;28;20074;-61
2021/10/11 03:49:49;;;;;;;9.18;2.65;;;9.30;99.90;;;;;;5042193;28;20121;-61
2021/10/11 03:52:14;;;;;;;7.82;2.47;;;9.30;99.90;;;;;;5013340;28;20648;-61
2021/10/11 03:54:40;;;;;;;9.38;2.40;;;9.30;99.90;;;;;;5028711;28;20411;-61
2021/10/11 03:57:05;;;;;;;9.95;2.53;;;9.30;99.90;;;;;;5039164;28;20040;-61
2021/10/11 03:59:31;;;;;;;13.60;2.50;;;9.30;99.90;;;;;;5046956;28;20037;-61
2021/10/11 04:01:56;;;;;;;7.35;2.38;;;9.30;99.90;;;;;;5041452;28;20045;-61
2021/10/11 04:04:22;;;;;;;10.48;2.75;;;9.30;99.90;;;;;;5034201;28;20056;-61
2021/10/11 04:06:50;;;;;;;10.27;2.72;;;9.40;99.90;;;;;;5034168;28;20442;-61
2021/10/11 04:09:16;;;;;;;11.90;2.63;;;9.40;99.90;;;;;;5032440;28;20495;-61
2021/10/11 04:11:41;;;;;;;13.18;3.25;;;9.40;99.90;;;;;;5019517;28;20056;-61
2021/10/11 04:14:07;;;;;;;7.65;2.92;;;9.40;99.90;;;;;;5036351;28;20114;-61
2021/10/11 04:16:33;;;;;;;6.35;1.75;;;9.40;99.90;;;;;;5030899;28;20569;-61
2021/10/11 04:18:58;;;;;;;14.15;2.53;;;9.50;99.90;;;;;;5033432;28;20043;-61
2021/10/11 04:21:24;;;;;;;10.90;2.30;;;9.50;99.90;;;;;;5031564;28;20375;-61
2021/10/11 04:23:49;;;;;;;9.77;2.00;;;9.50;99.90;;;;;;5032981;28;20060;-61
2021/10/11 04:26:15;;;;;;;9.10;2.15;;;9.50;99.90;;;;;;5031764;28;20045;-61
2021/10/11 04:28:41;;;;;;;9.40;2.05;;;9.50;99.90;;;;;;5031515;28;20057;-61
2021/10/11 04:31:06;;;;;;;9.07;1.90;;;9.50;99.90;;;;;;5032701;28;20052;-61
2021/10/11 04:33:32;;;;;;;8.27;2.03;;;9.50;99.90;;;;;;5044827;28;20041;-61
2021/10/11 04:35:59;;;;;;;7.35;2.05;;;9.60;99.90;;;;;;5041688;28;20403;-61
2021/10/11 04:38:24;;;;;;;8.60;2.20;;;9.60;99.90;;;;;;5034080;28;20479;-61
2021/10/11 04:40:50;;;;;;;7.00;1.88;;;9.60;99.90;;;;;;5033425;28;20041;-61
2021/10/11 04:43:15;;;;;;;9.90;2.30;;;9.60;99.90;;;;;;5032509;28;20026;-61
2021/10/11 04:45:41;;;;;;;8.98;2.08;;;9.60;99.90;;;;;;5031465;28;20120;-61
2021/10/11 04:48:08;;;;;;;5.85;1.80;;;9.60;99.90;;;;;;5024513;28;20766;-61
2021/10/11 04:50:34;;;;;;;10.00;2.38;;;9.60;99.90;;;;;;5031438;28;20041;-61
2021/10/11 04:53:00;;;;;;;11.55;2.33;;;9.60;99.90;;;;;;5040129;28;20041;-61
2021/10/11 04:55:26;;;;;;;9.18;2.40;;;9.50;99.90;;;;;;5027043;28;20056;-61
2021/10/11 04:57:52;;;;;;;11.32;2.33;;;9.50;99.90;;;;;;5024177;28;20109;-61
2021/10/11 05:00:19;;;;;;;10.80;3.13;;;9.50;99.90;;;;;;5017393;28;20108;-61
2021/10/11 05:02:45;;;;;;;7.47;1.90;;;9.50;99.90;;;;;;5027424;28;20518;-61
2021/10/11 05:05:11;;;;;;;5.20;2.00;;;9.40;99.90;;;;;;5033090;28;20171;-61
2021/10/11 05:07:37;;;;;;;7.95;2.00;;;9.40;99.90;;;;;;5034408;28;20045;-62
2021/10/11 05:10:04;;;;;;;10.20;2.10;;;9.40;99.90;;;;;;5033171;28;20041;-61
2021/10/11 05:12:29;;;;;;;13.38;2.33;;;9.40;99.90;;;;;;5031680;28;20044;-61
2021/10/11 05:14:55;;;;;;;12.15;2.65;;;9.40;99.90;;;;;;5030077;28;20827;-61
2021/10/11 05:17:20;;;;;;;9.77;2.45;;;9.30;99.90;;;;;;5031313;28;20081;-61
2021/10/11 05:19:46;;;;;;;6.07;1.83;;;9.40;99.90;;;;;;5043033;28;20045;-62
2021/10/11 05:22:11;;;;;;;9.82;2.13;;;9.30;99.90;;;;;;5031475;28;20108;-61
2021/10/11 05:24:37;;;;;;;12.68;2.50;;;9.30;99.90;;;;;;5026603;28;20045;-61
2021/10/11 05:27:02;;;;;;;8.90;2.22;;;9.30;99.90;;;;;;5025081;28;20068;-61
2021/10/11 05:29:28;;;;;;;12.25;2.42;;;9.30;99.90;;;;;;5022326;28;20068;-61
2021/10/11 05:31:54;;;;;;;11.73;2.60;;;9.30;99.90;;;;;;5031886;28;20065;-61
2021/10/11 05:34:20;;;;;;;7.82;2.80;;;9.30;99.90;;;;;;5025455;28;20046;-62
2021/10/11 05:36:45;;;;;;;8.95;2.50;;;9.30;99.90;;;;;;5055699;22;20052;-69
2021/10/11 05:39:11;;;;;;;8.73;2.60;;;9.30;99.90;;;;;;5041939;28;20041;-69
2021/10/11 05:41:37;;;;;;;10.98;2.42;;;9.30;99.90;;;;;;5052425;28;20087;-69
2021/10/11 05:44:03;;;;;;;7.72;2.17;;;9.30;99.90;;;;;;5053491;28;20131;-69
2021/10/11 05:46:28;;;;;;;12.43;2.83;;;9.30;99.90;;;;;;5053030;28;20047;-69
2021/10/11 05:48:54;;;;;;;10.30;2.40;;;9.20;99.90;;;;;;5050900;28;20060;-69
2021/10/11 05:51:19;;;;;;;14.85;2.53;;;9.20;99.90;;;;;;5029879;28;20064;-68
2021/10/11 05:53:45;;;;;;;11.38;5.15;;;9.20;99.90;;;;;;5048522;28;20087;-74
2021/10/11 05:56:10;;;;;;;15.10;2.35;;;9.20;99.90;;;;;;5053805;28;20490;-74
2021/10/11 05:58:36;;;;;;;11.77;2.47;;;9.20;99.90;;;;;;5063555;28;20045;-74
2021/10/11 06:01:02;;;;;;;9.82;2.13;;;9.20;99.90;;;;;;5048282;28;20478;-74
2021/10/11 06:03:27;;;;;;;12.27;2.53;;;9.20;99.90;;;;;;5058551;28;20397;-74
2021/10/11 06:05:53;;;;;;;9.95;2.45;;;9.20;99.90;;;;;;5070572;28;20048;-74
2021/10/11 06:08:19;;;;;;;10.10;2.60;;;9.20;99.90;;;;;;5033862;28;20049;-74
2021/10/11 06:10:45;;;;;;;9.20;2.80;;;9.20;99.90;;;;;;5014915;28;20374;-74
2021/10/11 06:13:10;;;;;;;9.10;2.45;;;9.20;99.90;;;;;;5047691;28;20045;-74
2021/10/11 06:15:36;;;;;;;9.85;2.60;;;9.20;99.90;;;;;;5051077;28;20041;-74
2021/10/11 06:18:02;;;;;;;9.35;2.30;;;9.20;99.90;;;;;;5049823;28;20186;-74
2021/10/11 06:20:27;;;;;;;9.85;2.28;;;9.10;99.90;;;;;;5049896;28;20052;-74
2021/10/11 06:22:53;;;;;;;9.65;2.15;;;9.20;99.90;;;;;;5050463;28;20063;-74
2021/10/11 06:25:18;;;;;;;9.57;2.67;;;9.20;99.90;;;;;;5043230;28;20033;-74
2021/10/11 06:27:44;;;;;;;8.55;2.42;;;9.20;99.90;;;;;;5050284;28;20045;-74
2021/10/11 06:30:10;;;;;;;7.72;2.05;;;9.20;99.90;;;;;;5050301;28;20052;-74
2021/10/11 06:32:35;;;;;;;12.85;2.70;;;9.20;99.90;;;;;;5050297;28;20060;-74
2021/10/11 06:35:01;;;;;;;11.60;2.80;;;9.20;99.90;;;;;;5049922;28;20060;-74
2021/10/11 06:37:27;;;;;;;9.35;2.55;;;9.20;99.90;;;;;;5049884;28;20056;-74
2021/10/11 06:39:52;;;;;;;12.10;2.20;;;9.30;99.90;;;;;;5054187;28;20040;-74
2021/10/11 06:42:18;;;;;;;12.63;2.60;;;9.30;99.90;;;;;;5048419;28;20387;-74
2021/10/11 06:44:44;;;;;;;10.57;2.47;;;9.40;99.90;;;;;;5048253;28;20096;-74
2021/10/11 06:47:09;;;;;;;12.93;2.72;;;9.40;99.90;;;;;;5047348;28;20048;-74
2021/10/11 06:49:35;;;;;;;12.32;2.33;;;9.50;99.90;;;;;;5049624;28;20486;-75
2021/10/11 06:52:01;;;;;;;16.05;2.35;;;9.50;99.90;;;;;;5049834;28;20060;-76
2021/10/11 06:54:26;;;;;;;13.07;2.40;;;9.60;99.90;;;;;;5048336;28;20075;-75
2021/10/11 06:56:52;;;;;;;10.10;2.20;;;9.60;99.90;;;;;;5048299;28;20482;-75
2021/10/11 06:59:18;;;;;;;10.50;2.25;;;9.70;99.90;;;;;;5032120;28;20676;-74
2021/10/11 07:01:44;;;;;;;11.00;2.58;;;9.70;99.90;;;;;;5021649;28;20174;-74
2021/10/11 07:04:10;;;;;;;11.57;2.33;;;9.80;99.90;;;;;;5049868;28;20474;-74
2021/10/11 07:06:36;;;;;;;11.95;3.15;;;10.00;99.90;;;;;;5033016;28;20076;-75
2021/10/11 07:09:02;;;;;;;12.75;2.53;;;10.10;99.90;;;;;;5062298;28;20628;-73
2021/10/11 07:11:28;;;;;;;13.88;2.83;;;10.30;99.90;;;;;;5067234;28;20088;-73
2021/10/11 07:13:53;;;;;;;14.48;2.45;;;10.40;99.90;;;;;;5058216;28;20039;-73
2021/10/11 07:16:19;;;;;;;14.23;3.05;;;10.50;99.90;;;;;;5030830;28;20037;-74
2021/10/11 07:18:44;;;;;;;12.35;2.15;;;10.60;99.90;;;;;;5046853;28;20036;-74
2021/10/11 07:21:10;;;;;;;10.38;2.20;;;10.70;99.90;;;;;;5049869;28;20053;-74
2021/10/11 07:23:36;;;;;;;14.13;2.40;;;10.80;99.90;;;;;;5068927;28;20040;-74
2021/10/11 07:26:04;;;;;;;13.27;2.08;;;10.80;99.90;;;;;;5066667;28;20045;-73
2021/10/11 07:28:29;;;;;;;10.63;2.10;;;10.80;99.90;;;;;;5069752;28;20091;-74
2021/10/11 07:30:55;;;;;;;13.65;2.55;;;10.90;99.90;;;;;;5063422;28;20091;-74
2021/10/11 07:33:21;;;;;;;10.90;2.03;;;10.90;99.90;;;;;;5040076;28;20042;-74
2021/10/11 07:35:47;;;;;;;12.48;2.30;;;10.90;99.90;;;;;;5067279;28;20409;-73
2021/10/11 07:38:13;;;;;;;11.18;2.17;;;11.00;99.90;;;;;;5039274;28;20056;-73
2021/10/11 07:40:39;;;;;;;11.93;2.35;;;11.00;99.90;;;;;;5049727;28;20487;-74
2021/10/11 07:43:04;;;;;;;13.00;2.20;;;11.00;99.90;;;;;;5049742;28;20657;-75
2021/10/11 07:45:30;;;;;;;13.75;2.35;;;11.10;99.90;;;;;;5051086;28;20120;-74
2021/10/11 07:47:56;;;;;;;9.43;2.55;;;11.00;99.90;;;;;;5049604;28;20179;-74
2021/10/11 07:50:22;;;;;;;9.88;2.20;;;11.10;99.90;;;;;;5030821;28;20060;-74
2021/10/11 07:52:48;;;;;;;7.93;2.20;;;11.10;99.90;;;;;;5030136;28;20049;-74
2021/10/11 07:55:13;;;;;;;9.25;2.22;;;11.10;99.90;;;;;;5029170;28;20449;-74
2021/10/11 07:57:40;;;;;;;9.77;2.03;;;11.10;99.90;;;;;;5035763;28;20037;-73
2021/10/11 08:00:08;;;;;;;9.77;2.17;;;11.20;99.90;;;;;;5045433;28;20042;-73
2021/10/11 08:02:34;;;;;;;8.93;2.45;;;11.20;99.90;;;;;;5045454;28;20037;-73
2021/10/11 08:04:59;;;;;;;11.90;2.33;;;11.30;99.90;;;;;;5045274;28;20482;-72
2021/10/11 08:07:25;;;;;;;12.20;2.78;;;11.30;99.90;;;;;;5048505;28;20049;-73
2021/10/11 08:09:51;;;;;;;11.48;2.15;;;11.30;99.90;;;;;;5048509;28;20052;-72
2021/10/11 08:12:16;;;;;;;12.93;2.22;;;11.30;99.90;;;;;;5032260;28;20078;-73
2021/10/11 08:14:44;;;;;;;7.78;2.13;;;11.30;99.90;;;;;;5049050;28;20056;-73
2021/10/11 08:17:10;;;;;;;10.05;2.05;;;11.30;99.90;;;;;;5048954;28;20041;-74
2021/10/11 08:19:36;;;;;;;11.00;2.08;;;11.30;99.90;;;;;;5052100;28;20041;-73
2021/10/11 08:22:01;;;;;;;11.68;2.13;;;11.30;99.90;;;;;;5049496;28;20459;-74
2021/10/11 08:24:27;;;;;;;10.52;2.20;;;11.40;99.90;;;;;;5045872;28;20146;-74
2021/10/11 08:26:52;;;;;;;12.23;1.88;;;11.40;99.90;;;;;;5052407;28;20394;-73
2021/10/11 08:29:18;;;;;;;8.57;1.85;;;11.50;99.90;;;;;;5061211;28;20459;-72
2021/10/11 08:31:44;;;;;;;8.77;2.50;;;11.60;99.90;;;;;;5037187;28;20044;-72
2021/10/11 08:34:09;;;;;;;10.13;2.03;;;11.70;99.90;;;;;;5048550;28;20673;-72
2021/10/11 08:36:35;;;;;;;7.95;1.58;;;11.80;99.90;;;;;;5052043;28;20056;-71
2021/10/11 08:39:01;;;;;;;13.98;2.40;;;11.90;99.90;;;;;;5052290;28;20123;-72
2021/10/11 08:41:26;;;;;;;10.18;2.10;;;12.00;99.90;;;;;;5056799;28;20109;-72
2021/10/11 08:43:52;;;;;;;12.20;2.20;;;12.10;99.90;;;;;;5055015;28;20086;-72
2021/10/11 08:46:17;;;;;;;15.65;2.45;;;12.20;99.90;;;;;;5051958;28;20044;-72
2021/10/11 08:48:43;;;;;;;11.80;2.10;;;12.20;99.90;;;;;;5051971;28;20076;-72
2021/10/11 08:51:09;;;;;;;9.23;2.00;;;12.40;99.90;;;;;;5051517;28;20083;-72
2021/10/11 08:53:36;;;;;;;13.10;3.22;;;12.40;99.90;;;;;;5051228;28;20053;-72
2021/10/11 08:56:02;;;;;;;8.93;1.92;;;12.60;99.90;;;;;;5035643;28;20687;-72
2021/10/11 08:58:28;;;;;;;9.40;1.90;;;12.70;99.90;;;;;;5023851;28;20073;-72
2021/10/11 09:01:07;;;;;;;9.63;2.55;;;12.90;99.90;;;;;;5060569;28;20454;-72
2021/10/11 09:03:32;;;;;;;8.27;2.00;;;13.00;99.90;;;;;;5052550;28;20094;-72
2021/10/11 09:06:10;;;;;;;10.50;2.72;;;13.20;99.90;;;;;;5051708;28;20044;-72
2021/10/11 09:08:37;;;;;;;10.18;1.85;;;13.30;99.90;;;;;;5052297;28;20032;-72
2021/10/11 09:11:05;;;;;;;14.15;2.53;;;13.40;99.90;;;;;;5056612;28;20091;-72
2021/10/11 09:13:53;;;;;;;8.63;2.00;;;13.50;99.90;;;;;;5048470;28;20478;-73
2021/10/11 09:16:32;;;;;;;12.38;2.15;;;13.60;99.90;;;;;;5049471;28;20083;-72
2021/10/11 09:19:19;;;;;;;10.10;2.03;;;13.70;99.90;;;;;;5051551;28;20166;-73
2021/10/11 09:21:46;;;;;;;10.20;2.10;;;13.80;99.90;;;;;;5070279;28;20037;-72
2021/10/11 09:24:14;;;;;;;13.30;2.70;;;13.90;99.90;;;;;;5071012;28;20047;-73
2021/10/11 09:26:45;;;;;;;10.98;2.65;;;14.00;99.90;;;;;;5060944;28;20037;-73
2021/10/11 09:29:12;;;;;;;13.38;2.45;;;14.10;99.90;;;;;;5050791;28;20132;-73
2021/10/11 09:31:41;;;;;;;10.32;1.98;;;14.10;99.90;;;;;;5046213;28;20045;-72
2021/10/11 09:34:07;;;;;;;10.73;1.48;;;14.20;99.90;;;;;;5040499;28;20044;-72
2021/10/11 09:36:34;;;;;;;4.82;1.35;;;14.20;99.90;;;;;;5050741;28;20441;-72
2021/10/11 09:39:01;;;;;;;13.13;2.17;;;14.20;99.90;;;;;;5051287;28;20085;-73
2021/10/11 09:41:27;;;;;;;7.50;1.27;;;14.20;99.90;;;;;;5050965;28;20037;-73
2021/10/11 09:43:52;;;;;;;7.68;1.73;;;14.20;99.90;;;;;;5051025;28;20055;-73
2021/10/11 09:46:20;;;;;;;9.88;1.98;;;14.10;99.90;;;;;;5055415;28;20111;-73
2021/10/11 09:48:51;;;;;;;9.40;1.63;;;14.20;99.90;;;;;;5020831;28;20124;-72
2021/10/11 09:51:17;;;;;;;8.02;1.60;;;14.20;99.90;;;;;;5031154;28;20087;-73
2021/10/11 09:53:45;;;;;;;7.93;1.73;;;14.20;99.90;;;;;;5050462;28;20068;-75
2021/10/11 09:56:11;;;;;;;7.30;1.63;;;14.30;99.90;;;;;;5034922;28;20112;-75
2021/10/11 09:58:38;;;;;;;5.82;1.60;;;14.50;99.90;;;;;;5047921;28;20120;-76
2021/10/11 10:01:03;;;;;;;13.77;1.92;;;14.60;99.90;;;;;;5033603;28;20116;-73
2021/10/11 10:03:32;;;;;;;8.60;1.50;;;14.70;99.90;;;;;;5060721;28;20463;-73
2021/10/11 10:05:59;;;;;;;7.85;1.23;;;14.70;99.90;;;;;;5035574;28;20048;-72
2021/10/11 10:08:28;;;;;;;8.95;1.48;;;14.70;99.90;;;;;;5031701;28;20473;-72
2021/10/11 10:10:56;;;;;;;6.05;1.30;;;14.70;99.90;;;;;;5027682;28;20056;-72
2021/10/11 10:13:26;;;;;;;8.52;1.70;;;14.80;99.90;;;;;;5051801;28;20041;-73
2021/10/11 10:15:57;;;;;;;5.80;1.00;;;14.70;99.90;;;;;;5049927;28;20115;-73
2021/10/11 10:18:22;;;;;;;6.40;1.55;;;14.90;99.90;;;;;;5052206;28;20045;-73
2021/10/11 10:20:53;;;;;;;9.73;1.65;;;14.90;99.90;;;;;;5063343;28;20509;-73
2021/10/11 10:23:29;;;;;;;8.20;1.27;;;15.10;99.90;;;;;;5040916;28;20036;-73
2021/10/11 10:25:56;;;;;;;7.57;1.95;;;15.10;99.90;;;;;;5056557;28;20055;-73
2021/10/11 10:28:24;;;;;;;9.38;1.42;;;15.20;99.90;;;;;;5071119;28;20177;-73
2021/10/11 10:31:01;;;;;;;6.15;1.75;;;15.20;99.90;;;;;;5063434;28;20041;-72
2021/10/11 10:33:41;;;;;;;8.05;1.50;;;15.20;99.90;;;;;;5051032;28;20072;-72
2021/10/11 10:36:24;;;;;;;5.95;1.50;;;15.30;99.90;;;;;;5042677;28;20291;-72
2021/10/11 10:39:00;;;;;;;7.22;1.35;;;15.40;99.90;;;;;;5049904;28;20112;-72
2021/10/11 10:41:26;;;;;;;9.13;1.33;;;15.50;99.90;;;;;;5029998;28;20045;-72
2021/10/11 10:43:52;;;;;;;5.53;1.45;;;15.50;99.90;;;;;;5046262;28;20044;-73
2021/10/11 10:46:17;;;;;;;12.40;1.60;;;15.60;99.90;;;;;;5048408;28;20402;-73
2021/10/11 10:48:54;;;;;;;11.77;1.58;;;15.70;99.90;;;;;;5033295;28;20045;-73
2021/10/11 10:51:20;;;;;;;8.77;1.20;;;15.70;99.90;;;;;;5049615;28;20505;-73
2021/10/11 10:53:50;;;;;;;11.23;1.63;;;15.80;99.90;;;;;;5049834;28;20414;-72
2021/10/11 10:56:15;;;;;;;6.68;1.35;;;15.80;99.90;;;;;;5040564;28;20045;-73
2021/10/11 10:58:41;;;;;;;5.95;1.38;;;15.80;99.90;;;;;;5037186;28;20048;-73
2021/10/11 11:01:06;;;;;;;7.30;1.30;;;15.70;99.90;;;;;;5053631;28;20037;-72
2021/10/11 11:03:32;;;;;;;9.07;1.83;;;15.70;99.90;;;;;;5033051;28;20037;-72
2021/10/11 11:06:02;;;;;;;6.95;1.30;;;15.60;99.90;;;;;;5051053;28;20372;-72
2021/10/11 11:08:27;;;;;;;4.20;1.10;;;15.70;99.90;;;;;;5057511;28;20056;-73
2021/10/11 11:10:58;;;;;;;5.18;1.20;;;15.70;99.90;;;;;;5049635;28;20033;-73
2021/10/11 11:13:24;;;;;;;7.03;1.10;;;15.30;99.90;;;;;;5050630;28;20033;-72
2021/10/11 11:15:52;;;;;;;4.85;1.13;;;15.10;99.90;;;;;;5049669;28;20124;-72
2021/10/11 11:18:25;;;;;;;7.40;1.17;;;15.00;99.90;;;;;;5049480;28;20573;-73
2021/10/11 11:20:53;;;;;;;6.20;1.15;;;14.90;99.90;;;;;;5048725;28;20044;-72
2021/10/11 11:23:24;;;;;;;4.57;1.00;;;14.70;99.90;;;;;;5032717;28;20127;-72
2021/10/11 11:25:56;;;;;;;5.50;1.02;;;14.40;99.90;;;;;;5051006;28;20047;-73
2021/10/11 11:28:24;;;;;;;6.03;1.35;;;14.50;99.90;;;;;;5035860;28;20037;-72
2021/10/11 11:30:53;;;;;;;8.60;1.65;;;14.40;99.90;;;;;;5035618;28;20558;-72
2021/10/11 11:33:19;;;;;;;5.85;1.13;;;14.40;99.90;;;;;;5048473;28;20029;-72
2021/10/11 11:35:51;;;;;;;6.10;1.30;;;14.40;99.90;;;;;;5063194;28;20521;-72
2021/10/11 11:38:19;;;;;;;6.80;1.20;;;14.50;99.90;;;;;;5090787;22;20497;-64
2021/10/11 11:40:51;;;;;;;5.40;1.00;;;14.50;99.90;;;;;;5068608;28;20142;-64
2021/10/11 11:43:18;;;;;;;5.63;1.45;;;14.50;99.90;;;;;;5070614;28;20048;-64
2021/10/11 11:45:52;;;;;;;4.88;1.35;;;14.60;99.90;;;;;;5057047;28;20127;-64
2021/10/11 11:48:20;;;;;;;8.32;1.50;;;14.80;99.90;;;;;;5068883;28;20036;-64
2021/10/11 11:50:52;;;;;;;7.28;1.05;;;14.80;99.90;;;;;;5068544;28;20040;-64
2021/10/11 11:53:20;;;;;;;4.93;1.08;;;15.00;99.90;;;;;;5062260;28;20084;-63
2021/10/11 11:55:52;;;;;;;6.38;1.05;;;15.30;99.90;;;;;;5032773;28;20045;-63
2021/10/11 11:58:28;;;;;;;;;;;15.50;99.90;;;;;;5065955;28;20036;-64
2021/10/11 12:00:57;;;;;;;4.78;1.10;;;15.20;99.90;;;;;;5073121;28;20045;-63
2021/10/11 12:03:28;;;;;;;5.32;0.98;;;14.60;99.90;;;;;;5073882;28;20105;-63
2021/10/11 12:05:56;;;;;;;1.77;0.50;;;14.00;99.90;;;;;;5074669;28;20067;-64
2021/10/11 12:08:22;;;;;;;3.50;1.10;;;13.90;99.90;;;;;;5074541;28;20041;-63
2021/10/11 12:11:03;;;;;;;3.67;0.70;;;13.90;99.90;;;;;;5074027;28;20041;-64
2021/10/11 12:13:41;;;;;;;5.07;1.20;;;13.90;99.90;;;;;;5074132;28;20052;-64
2021/10/11 12:16:12;;;;;;;5.82;1.17;;;14.00;99.90;;;;;;5072511;28;20044;-64
2021/10/11 12:18:50;;;;;;;4.60;0.80;;;14.10;99.90;;;;;;5072008;28;20040;-63
2021/10/11 12:21:34;;;;;;;4.78;1.00;;;14.10;99.90;;;;;;5063126;28;20036;-65
2021/10/11 12:24:02;;;;;;;5.43;0.80;;;13.90;99.90;;;;;;5073077;28;20044;-64
2021/10/11 12:26:29;;;;;;;8.15;1.00;;;13.90;99.90;;;;;;5071713;28;20078;-63
2021/10/11 12:29:01;;;;;;;5.55;1.40;;;14.00;99.90;;;;;;5072054;28;20041;-64
2021/10/11 12:31:30;;;;;;;4.50;0.83;;;14.00;99.90;;;;;;5073489;28;20040;-64
2021/10/11 12:34:06;;;;;;;6.03;1.30;;;13.90;99.90;;;;;;5054955;28;20067;-64
2021/10/11 12:36:33;;;;;;;8.27;1.42;;;13.80;99.90;;;;;;5064662;28;20048;-63
2021/10/11 12:39:11;;;;;;;8.68;1.10;;;13.70;99.90;;;;;;5071615;28;20032;-65
2021/10/11 12:41:38;;;;;;;7.68;1.15;;;13.70;99.90;;;;;;5071271;28;20066;-65
2021/10/11 12:44:04;;;;;;;5.00;1.30;;;13.70;99.90;;;;;;5072522;28;20048;-65